sensor_id;sensor_type;location;lat;lon;timestamp;P1;durP1;ratioP1;P2;durP2;ratioP2
8254;SDS011;4167;48.162;11.542;2023-03-08T00:00:59;345.73;;;65.20;;
8254;SDS011;4167;48.162;11.542;2023-03-08T00:03:26;323.67;;;64.80;;
8254;SDS011;4167;48.162;11.542;2023-03-08T00:05:54;396.17;;;68.93;;
8254;SDS011;4167;48.162;11.542;2023-03-08T00:08:20;335.43;;;66.47;;
8254;SDS011;4167;48.162;11.542;2023-03-08T00:10:47;335.57;;;65.70;;
8254;SDS011;4167;48.162;11.542;2023-03-08T00:13:13;330.57;;;64.40;;
8254;SDS011;4167;48.162;11.542;2023-03-08T00:15:40;340.53;;;65.63;;
8254;SDS011;4167;48.162;11.542;2023-03-08T00:18:06;374.70;;;67.47;;
8254;SDS011;4167;48.162;11.542;2023-03-08T00:20:33;321.23;;;64.30;;
8254;SDS011;4167;48.162;11.542;2023-03-08T00:23:01;343.83;;;66.47;;
8254;SDS011;4167;48.162;11.542;2023-03-08T00:25:27;332.37;;;62.90;;
8254;SDS011;4167;48.162;11.542;2023-03-08T00:27:53;328.77;;;64.03;;
8254;SDS011;4167;48.162;11.542;2023-03-08T00:30:20;351.70;;;64.73;;
8254;SDS011;4167;48.162;11.542;2023-03-08T00:32:46;270.80;;;60.00;;
8254;SDS011;4167;48.162;11.542;2023-03-08T00:35:13;267.10;;;62.23;;
8254;SDS011;4167;48.162;11.542;2023-03-08T00:37:39;344.47;;;63.57;;
8254;SDS011;4167;48.162;11.542;2023-03-08T00:40:08;371.17;;;67.87;;
8254;SDS011;4167;48.162;11.542;2023-03-08T00:42:35;295.80;;;61.20;;
8254;SDS011;4167;48.162;11.542;2023-03-08T00:45:01;329.47;;;63.97;;
8254;SDS011;4167;48.162;11.542;2023-03-08T00:47:28;324.27;;;63.27;;
8254;SDS011;4167;48.162;11.542;2023-03-08T00:49:54;351.40;;;64.10;;
8254;SDS011;4167;48.162;11.542;2023-03-08T00:52:21;329.73;;;63.43;;
8254;SDS011;4167;48.162;11.542;2023-03-08T00:54:47;324.23;;;63.27;;
8254;SDS011;4167;48.162;11.542;2023-03-08T00:57:15;325.00;;;64.60;;
8254;SDS011;4167;48.162;11.542;2023-03-08T00:59:42;312.40;;;63.47;;
8254;SDS011;4167;48.162;11.542;2023-03-08T01:02:08;298.37;;;61.63;;
8254;SDS011;4167;48.162;11.542;2023-03-08T01:04:35;317.83;;;62.70;;
8254;SDS011;4167;48.162;11.542;2023-03-08T01:07:01;339.87;;;64.17;;
8254;SDS011;4167;48.162;11.542;2023-03-08T01:09:28;326.50;;;61.90;;
8254;SDS011;4167;48.162;11.542;2023-03-08T01:11:54;346.17;;;64.07;;
8254;SDS011;4167;48.162;11.542;2023-03-08T01:14:22;402.23;;;67.63;;
8254;SDS011;4167;48.162;11.542;2023-03-08T01:16:48;325.53;;;63.00;;
8254;SDS011;4167;48.162;11.542;2023-03-08T01:19:15;324.37;;;63.00;;
8254;SDS011;4167;48.162;11.542;2023-03-08T01:21:42;332.50;;;61.93;;
8254;SDS011;4167;48.162;11.542;2023-03-08T01:24:08;311.43;;;60.77;;
8254;SDS011;4167;48.162;11.542;2023-03-08T01:26:35;298.67;;;60.93;;
8254;SDS011;4167;48.162;11.542;2023-03-08T01:29:01;306.00;;;62.07;;
8254;SDS011;4167;48.162;11.542;2023-03-08T01:31:29;279.83;;;60.80;;
8254;SDS011;4167;48.162;11.542;2023-03-08T01:33:56;428.73;;;69.00;;
8254;SDS011;4167;48.162;11.542;2023-03-08T01:36:24;314.93;;;60.50;;
8254;SDS011;4167;48.162;11.542;2023-03-08T01:38:51;360.97;;;64.27;;
8254;SDS011;4167;48.162;11.542;2023-03-08T01:41:18;354.60;;;64.77;;
8254;SDS011;4167;48.162;11.542;2023-03-08T01:43:46;361.33;;;62.87;;
8254;SDS011;4167;48.162;11.542;2023-03-08T01:46:14;386.90;;;65.53;;
8254;SDS011;4167;48.162;11.542;2023-03-08T01:48:46;293.47;;;59.57;;
8254;SDS011;4167;48.162;11.542;2023-03-08T01:51:16;320.30;;;61.60;;
8254;SDS011;4167;48.162;11.542;2023-03-08T01:53:44;335.37;;;61.67;;
8254;SDS011;4167;48.162;11.542;2023-03-08T01:56:12;325.23;;;61.57;;
8254;SDS011;4167;48.162;11.542;2023-03-08T01:58:39;308.17;;;61.87;;
8254;SDS011;4167;48.162;11.542;2023-03-08T02:01:06;351.33;;;63.07;;
8254;SDS011;4167;48.162;11.542;2023-03-08T02:03:32;265.30;;;58.80;;
8254;SDS011;4167;48.162;11.542;2023-03-08T02:06:00;353.07;;;63.50;;
8254;SDS011;4167;48.162;11.542;2023-03-08T02:08:28;288.57;;;59.83;;
8254;SDS011;4167;48.162;11.542;2023-03-08T02:10:54;352.97;;;63.40;;
8254;SDS011;4167;48.162;11.542;2023-03-08T02:13:22;323.53;;;62.13;;
8254;SDS011;4167;48.162;11.542;2023-03-08T02:15:49;287.27;;;61.27;;
8254;SDS011;4167;48.162;11.542;2023-03-08T02:18:16;266.17;;;57.77;;
8254;SDS011;4167;48.162;11.542;2023-03-08T02:20:42;280.97;;;58.73;;
8254;SDS011;4167;48.162;11.542;2023-03-08T02:23:11;319.67;;;61.57;;
8254;SDS011;4167;48.162;11.542;2023-03-08T02:25:39;252.83;;;56.60;;
8254;SDS011;4167;48.162;11.542;2023-03-08T02:28:06;370.03;;;65.70;;
8254;SDS011;4167;48.162;11.542;2023-03-08T02:30:33;288.17;;;59.97;;
8254;SDS011;4167;48.162;11.542;2023-03-08T02:33:01;364.17;;;63.27;;
8254;SDS011;4167;48.162;11.542;2023-03-08T02:35:27;367.17;;;64.03;;
8254;SDS011;4167;48.162;11.542;2023-03-08T02:37:54;339.00;;;61.83;;
8254;SDS011;4167;48.162;11.542;2023-03-08T02:40:22;413.97;;;68.80;;
8254;SDS011;4167;48.162;11.542;2023-03-08T02:42:49;355.47;;;63.63;;
8254;SDS011;4167;48.162;11.542;2023-03-08T02:45:15;340.30;;;63.40;;
8254;SDS011;4167;48.162;11.542;2023-03-08T02:47:42;300.57;;;60.07;;
8254;SDS011;4167;48.162;11.542;2023-03-08T02:50:09;321.47;;;61.70;;
8254;SDS011;4167;48.162;11.542;2023-03-08T02:52:36;296.00;;;60.37;;
8254;SDS011;4167;48.162;11.542;2023-03-08T02:55:02;472.97;;;71.93;;
8254;SDS011;4167;48.162;11.542;2023-03-08T02:57:31;264.80;;;58.40;;
8254;SDS011;4167;48.162;11.542;2023-03-08T02:59:57;373.63;;;65.23;;
8254;SDS011;4167;48.162;11.542;2023-03-08T03:02:24;455.80;;;68.87;;
8254;SDS011;4167;48.162;11.542;2023-03-08T03:04:50;318.70;;;60.73;;
8254;SDS011;4167;48.162;11.542;2023-03-08T03:07:17;331.67;;;61.73;;
8254;SDS011;4167;48.162;11.542;2023-03-08T03:09:43;213.60;;;55.57;;
8254;SDS011;4167;48.162;11.542;2023-03-08T03:12:09;254.40;;;57.27;;
8254;SDS011;4167;48.162;11.542;2023-03-08T03:14:37;302.73;;;60.67;;
8254;SDS011;4167;48.162;11.542;2023-03-08T03:17:04;399.17;;;66.07;;
8254;SDS011;4167;48.162;11.542;2023-03-08T03:19:30;318.20;;;60.93;;
8254;SDS011;4167;48.162;11.542;2023-03-08T03:21:57;407.87;;;67.30;;
8254;SDS011;4167;48.162;11.542;2023-03-08T03:24:23;341.60;;;64.07;;
8254;SDS011;4167;48.162;11.542;2023-03-08T03:26:50;490.00;;;72.83;;
8254;SDS011;4167;48.162;11.542;2023-03-08T03:29:17;331.13;;;63.70;;
8254;SDS011;4167;48.162;11.542;2023-03-08T03:31:45;324.33;;;62.77;;
8254;SDS011;4167;48.162;11.542;2023-03-08T03:34:12;326.47;;;64.00;;
8254;SDS011;4167;48.162;11.542;2023-03-08T03:36:39;292.63;;;61.27;;
8254;SDS011;4167;48.162;11.542;2023-03-08T03:39:05;442.60;;;70.40;;
8254;SDS011;4167;48.162;11.542;2023-03-08T03:41:32;274.10;;;59.80;;
8254;SDS011;4167;48.162;11.542;2023-03-08T03:43:58;368.20;;;66.03;;
8254;SDS011;4167;48.162;11.542;2023-03-08T03:46:25;262.57;;;59.33;;
8254;SDS011;4167;48.162;11.542;2023-03-08T03:48:52;359.37;;;65.13;;
8254;SDS011;4167;48.162;11.542;2023-03-08T03:51:20;250.87;;;59.07;;
8254;SDS011;4167;48.162;11.542;2023-03-08T03:53:47;279.90;;;61.00;;
8254;SDS011;4167;48.162;11.542;2023-03-08T03:56:15;283.87;;;61.20;;
8254;SDS011;4167;48.162;11.542;2023-03-08T03:58:43;256.30;;;57.83;;
8254;SDS011;4167;48.162;11.542;2023-03-08T04:01:10;256.63;;;58.77;;
8254;SDS011;4167;48.162;11.542;2023-03-08T04:03:39;330.40;;;64.00;;
8254;SDS011;4167;48.162;11.542;2023-03-08T04:06:08;352.67;;;63.97;;
8254;SDS011;4167;48.162;11.542;2023-03-08T04:08:36;274.70;;;59.33;;
8254;SDS011;4167;48.162;11.542;2023-03-08T04:11:06;324.33;;;61.83;;
8254;SDS011;4167;48.162;11.542;2023-03-08T04:13:32;161.27;;;53.07;;
8254;SDS011;4167;48.162;11.542;2023-03-08T04:15:59;159.97;;;54.07;;
8254;SDS011;4167;48.162;11.542;2023-03-08T04:18:25;201.90;;;54.57;;
8254;SDS011;4167;48.162;11.542;2023-03-08T04:20:52;201.63;;;55.20;;
8254;SDS011;4167;48.162;11.542;2023-03-08T04:23:19;210.17;;;55.03;;
8254;SDS011;4167;48.162;11.542;2023-03-08T04:25:46;161.90;;;53.40;;
8254;SDS011;4167;48.162;11.542;2023-03-08T04:28:12;162.70;;;52.87;;
8254;SDS011;4167;48.162;11.542;2023-03-08T04:30:39;176.27;;;54.30;;
8254;SDS011;4167;48.162;11.542;2023-03-08T04:33:05;206.30;;;55.93;;
8254;SDS011;4167;48.162;11.542;2023-03-08T04:35:32;175.63;;;54.13;;
8254;SDS011;4167;48.162;11.542;2023-03-08T04:37:58;222.10;;;57.70;;
8254;SDS011;4167;48.162;11.542;2023-03-08T04:40:26;202.73;;;56.37;;
8254;SDS011;4167;48.162;11.542;2023-03-08T04:42:53;225.03;;;57.07;;
8254;SDS011;4167;48.162;11.542;2023-03-08T04:45:20;188.47;;;56.23;;
8254;SDS011;4167;48.162;11.542;2023-03-08T04:47:47;170.80;;;53.33;;
8254;SDS011;4167;48.162;11.542;2023-03-08T04:50:13;170.47;;;54.57;;
8254;SDS011;4167;48.162;11.542;2023-03-08T04:52:39;183.47;;;55.27;;
8254;SDS011;4167;48.162;11.542;2023-03-08T04:55:06;214.33;;;56.87;;
8254;SDS011;4167;48.162;11.542;2023-03-08T04:57:34;215.80;;;56.03;;
8254;SDS011;4167;48.162;11.542;2023-03-08T05:00:01;198.17;;;55.83;;
8254;SDS011;4167;48.162;11.542;2023-03-08T05:02:29;202.97;;;55.03;;
8254;SDS011;4167;48.162;11.542;2023-03-08T05:04:56;211.30;;;56.63;;
8254;SDS011;4167;48.162;11.542;2023-03-08T05:07:22;192.97;;;55.17;;
8254;SDS011;4167;48.162;11.542;2023-03-08T05:09:49;174.10;;;54.50;;
8254;SDS011;4167;48.162;11.542;2023-03-08T05:12:15;165.93;;;54.97;;
8254;SDS011;4167;48.162;11.542;2023-03-08T05:14:43;235.10;;;58.53;;
8254;SDS011;4167;48.162;11.542;2023-03-08T05:17:10;155.20;;;53.83;;
8254;SDS011;4167;48.162;11.542;2023-03-08T05:19:36;189.73;;;54.87;;
8254;SDS011;4167;48.162;11.542;2023-03-08T05:22:03;234.77;;;59.37;;
8254;SDS011;4167;48.162;11.542;2023-03-08T05:24:30;196.30;;;55.93;;
8254;SDS011;4167;48.162;11.542;2023-03-08T05:26:56;213.77;;;56.50;;
8254;SDS011;4167;48.162;11.542;2023-03-08T05:29:23;183.03;;;54.67;;
8254;SDS011;4167;48.162;11.542;2023-03-08T05:31:51;247.83;;;58.17;;
8254;SDS011;4167;48.162;11.542;2023-03-08T05:34:17;223.07;;;56.97;;
8254;SDS011;4167;48.162;11.542;2023-03-08T05:36:43;224.60;;;56.90;;
8254;SDS011;4167;48.162;11.542;2023-03-08T05:39:10;233.30;;;57.93;;
8254;SDS011;4167;48.162;11.542;2023-03-08T05:41:36;205.07;;;55.97;;
8254;SDS011;4167;48.162;11.542;2023-03-08T05:44:03;216.53;;;57.20;;
8254;SDS011;4167;48.162;11.542;2023-03-08T05:46:29;189.83;;;56.17;;
8254;SDS011;4167;48.162;11.542;2023-03-08T05:48:57;258.37;;;60.70;;
8254;SDS011;4167;48.162;11.542;2023-03-08T05:51:24;180.60;;;55.13;;
8254;SDS011;4167;48.162;11.542;2023-03-08T05:53:50;157.73;;;52.17;;
8254;SDS011;4167;48.162;11.542;2023-03-08T05:56:17;176.17;;;55.47;;
8254;SDS011;4167;48.162;11.542;2023-03-08T05:58:44;231.53;;;59.13;;
8254;SDS011;4167;48.162;11.542;2023-03-08T06:01:11;168.70;;;54.87;;
8254;SDS011;4167;48.162;11.542;2023-03-08T06:03:40;168.97;;;55.03;;
8254;SDS011;4167;48.162;11.542;2023-03-08T06:06:08;176.70;;;54.40;;
8254;SDS011;4167;48.162;11.542;2023-03-08T06:08:34;191.83;;;56.13;;
8254;SDS011;4167;48.162;11.542;2023-03-08T06:11:01;201.27;;;58.10;;
8254;SDS011;4167;48.162;11.542;2023-03-08T06:13:27;220.63;;;57.60;;
8254;SDS011;4167;48.162;11.542;2023-03-08T06:15:54;173.47;;;56.00;;
8254;SDS011;4167;48.162;11.542;2023-03-08T06:18:21;174.27;;;55.00;;
8254;SDS011;4167;48.162;11.542;2023-03-08T06:20:54;200.70;;;56.47;;
8254;SDS011;4167;48.162;11.542;2023-03-08T06:23:25;222.97;;;59.13;;
8254;SDS011;4167;48.162;11.542;2023-03-08T06:25:52;151.63;;;55.00;;
8254;SDS011;4167;48.162;11.542;2023-03-08T06:28:19;220.87;;;57.97;;
8254;SDS011;4167;48.162;11.542;2023-03-08T06:30:46;178.53;;;57.27;;
8254;SDS011;4167;48.162;11.542;2023-03-08T06:33:14;226.93;;;59.37;;
8254;SDS011;4167;48.162;11.542;2023-03-08T06:35:41;205.43;;;58.03;;
8254;SDS011;4167;48.162;11.542;2023-03-08T06:38:07;195.57;;;56.70;;
8254;SDS011;4167;48.162;11.542;2023-03-08T06:40:35;243.07;;;60.50;;
8254;SDS011;4167;48.162;11.542;2023-03-08T06:43:02;202.57;;;58.90;;
8254;SDS011;4167;48.162;11.542;2023-03-08T06:45:28;208.63;;;58.40;;
8254;SDS011;4167;48.162;11.542;2023-03-08T06:47:55;231.80;;;61.33;;
8254;SDS011;4167;48.162;11.542;2023-03-08T06:50:21;206.33;;;59.60;;
8254;SDS011;4167;48.162;11.542;2023-03-08T06:52:48;243.17;;;62.20;;
8254;SDS011;4167;48.162;11.542;2023-03-08T06:55:14;226.13;;;60.93;;
8254;SDS011;4167;48.162;11.542;2023-03-08T06:57:42;217.20;;;60.53;;
8254;SDS011;4167;48.162;11.542;2023-03-08T07:00:11;215.63;;;59.73;;
8254;SDS011;4167;48.162;11.542;2023-03-08T07:02:39;238.33;;;61.70;;
8254;SDS011;4167;48.162;11.542;2023-03-08T07:05:06;212.83;;;59.23;;
8254;SDS011;4167;48.162;11.542;2023-03-08T07:07:33;266.17;;;60.93;;
8254;SDS011;4167;48.162;11.542;2023-03-08T07:10:00;210.50;;;59.83;;
8254;SDS011;4167;48.162;11.542;2023-03-08T07:12:27;218.50;;;58.07;;
8254;SDS011;4167;48.162;11.542;2023-03-08T07:14:56;235.70;;;60.63;;
8254;SDS011;4167;48.162;11.542;2023-03-08T07:17:23;238.00;;;59.57;;
8254;SDS011;4167;48.162;11.542;2023-03-08T07:19:49;233.57;;;61.77;;
8254;SDS011;4167;48.162;11.542;2023-03-08T07:22:16;239.10;;;60.97;;
8254;SDS011;4167;48.162;11.542;2023-03-08T07:24:45;267.20;;;63.53;;
8254;SDS011;4167;48.162;11.542;2023-03-08T07:27:12;227.37;;;59.47;;
8254;SDS011;4167;48.162;11.542;2023-03-08T07:29:38;211.27;;;60.13;;
8254;SDS011;4167;48.162;11.542;2023-03-08T07:32:06;200.03;;;58.80;;
8254;SDS011;4167;48.162;11.542;2023-03-08T07:34:33;201.90;;;59.77;;
8254;SDS011;4167;48.162;11.542;2023-03-08T07:36:59;233.30;;;62.00;;
8254;SDS011;4167;48.162;11.542;2023-03-08T07:39:26;220.27;;;60.33;;
8254;SDS011;4167;48.162;11.542;2023-03-08T07:41:52;249.43;;;61.33;;
8254;SDS011;4167;48.162;11.542;2023-03-08T07:44:19;268.63;;;63.33;;
8254;SDS011;4167;48.162;11.542;2023-03-08T07:46:45;228.43;;;61.20;;
8254;SDS011;4167;48.162;11.542;2023-03-08T07:49:13;205.90;;;58.37;;
8254;SDS011;4167;48.162;11.542;2023-03-08T07:51:40;217.87;;;59.20;;
8254;SDS011;4167;48.162;11.542;2023-03-08T07:54:08;199.87;;;59.30;;
8254;SDS011;4167;48.162;11.542;2023-03-08T07:56:35;363.93;;;71.17;;
8254;SDS011;4167;48.162;11.542;2023-03-08T07:59:02;342.07;;;70.00;;
8254;SDS011;4167;48.162;11.542;2023-03-08T08:01:28;272.50;;;65.20;;
8254;SDS011;4167;48.162;11.542;2023-03-08T08:03:57;314.20;;;66.80;;
8254;SDS011;4167;48.162;11.542;2023-03-08T08:06:25;311.33;;;68.63;;
8254;SDS011;4167;48.162;11.542;2023-03-08T08:08:51;319.10;;;68.13;;
8254;SDS011;4167;48.162;11.542;2023-03-08T08:11:18;295.93;;;65.47;;
8254;SDS011;4167;48.162;11.542;2023-03-08T08:13:44;331.20;;;69.57;;
8254;SDS011;4167;48.162;11.542;2023-03-08T08:16:11;310.63;;;67.60;;
8254;SDS011;4167;48.162;11.542;2023-03-08T08:18:38;231.90;;;62.07;;
8254;SDS011;4167;48.162;11.542;2023-03-08T08:21:05;294.50;;;67.60;;
8254;SDS011;4167;48.162;11.542;2023-03-08T08:23:34;258.23;;;63.80;;
8254;SDS011;4167;48.162;11.542;2023-03-08T08:26:03;319.73;;;69.73;;
8254;SDS011;4167;48.162;11.542;2023-03-08T08:28:30;279.67;;;66.83;;
8254;SDS011;4167;48.162;11.542;2023-03-08T08:30:57;280.77;;;66.17;;
8254;SDS011;4167;48.162;11.542;2023-03-08T08:33:24;306.87;;;66.80;;
8254;SDS011;4167;48.162;11.542;2023-03-08T08:35:50;251.03;;;63.87;;
8254;SDS011;4167;48.162;11.542;2023-03-08T08:38:17;260.00;;;63.97;;
8254;SDS011;4167;48.162;11.542;2023-03-08T08:40:45;234.03;;;63.00;;
8254;SDS011;4167;48.162;11.542;2023-03-08T08:43:11;246.67;;;62.77;;
8254;SDS011;4167;48.162;11.542;2023-03-08T08:45:41;319.57;;;68.90;;
8254;SDS011;4167;48.162;11.542;2023-03-08T08:48:08;245.13;;;60.27;;
8254;SDS011;4167;48.162;11.542;2023-03-08T08:50:36;258.67;;;61.80;;
8254;SDS011;4167;48.162;11.542;2023-03-08T08:53:02;282.60;;;65.87;;
8254;SDS011;4167;48.162;11.542;2023-03-08T08:55:29;337.13;;;68.50;;
8254;SDS011;4167;48.162;11.542;2023-03-08T08:57:57;433.67;;;74.27;;
8254;SDS011;4167;48.162;11.542;2023-03-08T09:00:23;286.43;;;63.27;;
8254;SDS011;4167;48.162;11.542;2023-03-08T09:02:50;251.30;;;61.23;;
8254;SDS011;4167;48.162;11.542;2023-03-08T09:05:16;200.73;;;59.57;;
8254;SDS011;4167;48.162;11.542;2023-03-08T09:07:43;178.50;;;57.67;;
8254;SDS011;4167;48.162;11.542;2023-03-08T09:10:09;219.80;;;59.23;;
8254;SDS011;4167;48.162;11.542;2023-03-08T09:12:36;255.23;;;60.47;;
8254;SDS011;4167;48.162;11.542;2023-03-08T09:15:05;229.97;;;61.40;;
8254;SDS011;4167;48.162;11.542;2023-03-08T09:17:34;209.43;;;56.87;;
8254;SDS011;4167;48.162;11.542;2023-03-08T09:20:00;166.33;;;56.10;;
8254;SDS011;4167;48.162;11.542;2023-03-08T09:22:28;219.83;;;59.50;;
8254;SDS011;4167;48.162;11.542;2023-03-08T09:24:54;232.00;;;61.03;;
8254;SDS011;4167;48.162;11.542;2023-03-08T09:27:21;236.33;;;60.47;;
8254;SDS011;4167;48.162;11.542;2023-03-08T09:29:47;213.07;;;59.70;;
8254;SDS011;4167;48.162;11.542;2023-03-08T09:32:15;272.27;;;63.53;;
8254;SDS011;4167;48.162;11.542;2023-03-08T09:34:41;247.97;;;61.37;;
8254;SDS011;4167;48.162;11.542;2023-03-08T09:37:09;220.23;;;59.53;;
8254;SDS011;4167;48.162;11.542;2023-03-08T09:39:35;238.37;;;62.57;;
8254;SDS011;4167;48.162;11.542;2023-03-08T09:42:03;271.70;;;63.33;;
8254;SDS011;4167;48.162;11.542;2023-03-08T09:47:35;247.60;;;62.67;;
8254;SDS011;4167;48.162;11.542;2023-03-08T09:50:10;258.27;;;65.23;;
8254;SDS011;4167;48.162;11.542;2023-03-08T09:52:42;222.53;;;59.90;;
8254;SDS011;4167;48.162;11.542;2023-03-08T09:55:16;229.93;;;62.63;;
8254;SDS011;4167;48.162;11.542;2023-03-08T09:57:50;229.80;;;61.07;;
8254;SDS011;4167;48.162;11.542;2023-03-08T10:00:18;238.93;;;65.00;;
8254;SDS011;4167;48.162;11.542;2023-03-08T10:02:48;232.80;;;61.37;;
8254;SDS011;4167;48.162;11.542;2023-03-08T10:05:20;251.57;;;65.43;;
8254;SDS011;4167;48.162;11.542;2023-03-08T10:07:50;243.20;;;63.53;;
8254;SDS011;4167;48.162;11.542;2023-03-08T10:10:24;247.07;;;64.33;;
8254;SDS011;4167;48.162;11.542;2023-03-08T10:13:03;221.07;;;61.40;;
8254;SDS011;4167;48.162;11.542;2023-03-08T10:15:40;245.40;;;62.83;;
8254;SDS011;4167;48.162;11.542;2023-03-08T10:18:11;241.23;;;62.37;;
8254;SDS011;4167;48.162;11.542;2023-03-08T10:20:41;215.70;;;61.50;;
8254;SDS011;4167;48.162;11.542;2023-03-08T10:23:13;213.40;;;62.53;;
8254;SDS011;4167;48.162;11.542;2023-03-08T10:25:41;240.47;;;64.40;;
8254;SDS011;4167;48.162;11.542;2023-03-08T10:28:10;194.30;;;60.17;;
8254;SDS011;4167;48.162;11.542;2023-03-08T10:30:40;229.73;;;61.70;;
8254;SDS011;4167;48.162;11.542;2023-03-08T10:33:09;244.70;;;64.23;;
8254;SDS011;4167;48.162;11.542;2023-03-08T10:35:51;235.00;;;62.53;;
8254;SDS011;4167;48.162;11.542;2023-03-08T10:38:19;207.40;;;61.97;;
8254;SDS011;4167;48.162;11.542;2023-03-08T10:40:46;202.50;;;60.37;;
8254;SDS011;4167;48.162;11.542;2023-03-08T10:43:15;235.90;;;65.15;;
8254;SDS011;4167;48.162;11.542;2023-03-08T10:45:44;228.70;;;63.10;;
8254;SDS011;4167;48.162;11.542;2023-03-08T10:48:16;262.20;;;66.40;;
8254;SDS011;4167;48.162;11.542;2023-03-08T10:50:45;174.60;;;56.57;;
8254;SDS011;4167;48.162;11.542;2023-03-08T10:53:23;241.10;;;60.90;;
8254;SDS011;4167;48.162;11.542;2023-03-08T10:55:53;285.10;;;65.10;;
8254;SDS011;4167;48.162;11.542;2023-03-08T10:58:27;252.80;;;62.23;;
8254;SDS011;4167;48.162;11.542;2023-03-08T11:00:56;209.20;;;59.90;;
8254;SDS011;4167;48.162;11.542;2023-03-08T11:03:26;263.17;;;63.53;;
8254;SDS011;4167;48.162;11.542;2023-03-08T11:05:54;220.20;;;60.53;;
8254;SDS011;4167;48.162;11.542;2023-03-08T11:08:22;225.53;;;60.23;;
8254;SDS011;4167;48.162;11.542;2023-03-08T11:11:06;276.03;;;63.73;;
8254;SDS011;4167;48.162;11.542;2023-03-08T11:13:35;290.10;;;64.87;;
8254;SDS011;4167;48.162;11.542;2023-03-08T11:19:08;264.03;;;63.50;;
8254;SDS011;4167;48.162;11.542;2023-03-08T11:21:43;214.80;;;61.00;;
8254;SDS011;4167;48.162;11.542;2023-03-08T11:24:16;311.17;;;66.60;;
8254;SDS011;4167;48.162;11.542;2023-03-08T11:26:51;314.43;;;66.00;;
8254;SDS011;4167;48.162;11.542;2023-03-08T11:29:27;260.88;;;65.35;;
8254;SDS011;4167;48.162;11.542;2023-03-08T11:32:00;266.13;;;63.77;;
8254;SDS011;4167;48.162;11.542;2023-03-08T11:34:37;285.10;;;63.33;;
8254;SDS011;4167;48.162;11.542;2023-03-08T11:37:09;223.83;;;59.70;;
8254;SDS011;4167;48.162;11.542;2023-03-08T11:39:41;229.73;;;59.23;;
8254;SDS011;4167;48.162;11.542;2023-03-08T11:42:14;258.77;;;61.40;;
8254;SDS011;4167;48.162;11.542;2023-03-08T11:48:00;178.63;;;55.23;;
8254;SDS011;4167;48.162;11.542;2023-03-08T11:50:34;200.40;;;57.80;;
8254;SDS011;4167;48.162;11.542;2023-03-08T11:53:05;261.15;;;65.28;;
8254;SDS011;4167;48.162;11.542;2023-03-08T11:55:53;203.90;;;58.43;;
8254;SDS011;4167;48.162;11.542;2023-03-08T11:58:28;222.10;;;64.13;;
8254;SDS011;4167;48.162;11.542;2023-03-08T12:00:58;211.50;;;59.60;;
8254;SDS011;4167;48.162;11.542;2023-03-08T12:03:27;228.03;;;60.20;;
8254;SDS011;4167;48.162;11.542;2023-03-08T12:05:58;251.20;;;63.27;;
8254;SDS011;4167;48.162;11.542;2023-03-08T12:08:28;260.17;;;62.47;;
8254;SDS011;4167;48.162;11.542;2023-03-08T12:10:58;216.53;;;60.43;;
8254;SDS011;4167;48.162;11.542;2023-03-08T12:13:27;259.80;;;61.17;;
8254;SDS011;4167;48.162;11.542;2023-03-08T12:15:58;262.40;;;62.43;;
8254;SDS011;4167;48.162;11.542;2023-03-08T12:18:30;229.33;;;60.63;;
8254;SDS011;4167;48.162;11.542;2023-03-08T12:21:03;250.43;;;61.63;;
8254;SDS011;4167;48.162;11.542;2023-03-08T12:23:36;235.27;;;60.87;;
8254;SDS011;4167;48.162;11.542;2023-03-08T12:26:06;259.67;;;63.30;;
8254;SDS011;4167;48.162;11.542;2023-03-08T12:28:35;209.83;;;59.00;;
8254;SDS011;4167;48.162;11.542;2023-03-08T12:31:07;214.40;;;60.47;;
8254;SDS011;4167;48.162;11.542;2023-03-08T12:33:44;190.47;;;58.33;;
8254;SDS011;4167;48.162;11.542;2023-03-08T12:36:12;201.60;;;59.50;;
8254;SDS011;4167;48.162;11.542;2023-03-08T12:38:39;208.53;;;59.30;;
8254;SDS011;4167;48.162;11.542;2023-03-08T12:41:19;252.97;;;62.63;;
8254;SDS011;4167;48.162;11.542;2023-03-08T12:43:56;229.83;;;61.10;;
8254;SDS011;4167;48.162;11.542;2023-03-08T12:46:24;224.23;;;59.77;;
8254;SDS011;4167;48.162;11.542;2023-03-08T12:48:50;257.37;;;63.20;;
8254;SDS011;4167;48.162;11.542;2023-03-08T12:51:20;246.23;;;61.13;;
8254;SDS011;4167;48.162;11.542;2023-03-08T12:53:55;179.77;;;58.60;;
8254;SDS011;4167;48.162;11.542;2023-03-08T12:56:24;204.67;;;59.33;;
8254;SDS011;4167;48.162;11.542;2023-03-08T12:58:53;236.27;;;62.43;;
8254;SDS011;4167;48.162;11.542;2023-03-08T13:01:26;211.60;;;59.80;;
8254;SDS011;4167;48.162;11.542;2023-03-08T13:03:55;253.53;;;63.60;;
8254;SDS011;4167;48.162;11.542;2023-03-08T13:06:31;184.53;;;57.63;;
8254;SDS011;4167;48.162;11.542;2023-03-08T13:09:17;198.83;;;58.70;;
8254;SDS011;4167;48.162;11.542;2023-03-08T13:11:49;203.17;;;58.67;;
8254;SDS011;4167;48.162;11.542;2023-03-08T13:14:23;327.80;;;66.83;;
8254;SDS011;4167;48.162;11.542;2023-03-08T13:16:52;246.20;;;60.50;;
8254;SDS011;4167;48.162;11.542;2023-03-08T13:19:20;180.87;;;56.43;;
8254;SDS011;4167;48.162;11.542;2023-03-08T13:21:54;217.90;;;62.58;;
8254;SDS011;4167;48.162;11.542;2023-03-08T13:24:37;243.10;;;62.10;;
8254;SDS011;4167;48.162;11.542;2023-03-08T13:27:13;247.27;;;61.20;;
8254;SDS011;4167;48.162;11.542;2023-03-08T13:29:44;177.03;;;56.17;;
8254;SDS011;4167;48.162;11.542;2023-03-08T13:32:14;233.20;;;59.87;;
8254;SDS011;4167;48.162;11.542;2023-03-08T13:34:42;247.97;;;61.37;;
8254;SDS011;4167;48.162;11.542;2023-03-08T13:37:20;243.97;;;61.57;;
8254;SDS011;4167;48.162;11.542;2023-03-08T13:39:50;187.47;;;57.73;;
8254;SDS011;4167;48.162;11.542;2023-03-08T13:42:17;247.90;;;61.13;;
8254;SDS011;4167;48.162;11.542;2023-03-08T13:44:48;223.30;;;59.03;;
8254;SDS011;4167;48.162;11.542;2023-03-08T13:47:18;269.23;;;62.50;;
8254;SDS011;4167;48.162;11.542;2023-03-08T13:49:47;261.40;;;62.30;;
8254;SDS011;4167;48.162;11.542;2023-03-08T13:52:15;256.90;;;61.70;;
8254;SDS011;4167;48.162;11.542;2023-03-08T13:54:46;252.13;;;61.43;;
8254;SDS011;4167;48.162;11.542;2023-03-08T13:57:16;221.90;;;60.20;;
8254;SDS011;4167;48.162;11.542;2023-03-08T13:59:46;223.47;;;59.57;;
8254;SDS011;4167;48.162;11.542;2023-03-08T14:02:15;250.23;;;61.17;;
8254;SDS011;4167;48.162;11.542;2023-03-08T14:04:45;232.30;;;60.07;;
8254;SDS011;4167;48.162;11.542;2023-03-08T14:07:16;260.47;;;61.50;;
8254;SDS011;4167;48.162;11.542;2023-03-08T14:09:47;253.77;;;61.73;;
8254;SDS011;4167;48.162;11.542;2023-03-08T14:12:14;257.30;;;61.43;;
8254;SDS011;4167;48.162;11.542;2023-03-08T14:14:42;237.90;;;60.50;;
8254;SDS011;4167;48.162;11.542;2023-03-08T14:17:13;219.23;;;59.10;;
8254;SDS011;4167;48.162;11.542;2023-03-08T14:19:44;218.90;;;59.53;;
8254;SDS011;4167;48.162;11.542;2023-03-08T14:22:11;189.23;;;57.77;;
8254;SDS011;4167;48.162;11.542;2023-03-08T14:24:39;229.90;;;59.97;;
8254;SDS011;4167;48.162;11.542;2023-03-08T14:30:01;262.77;;;62.30;;
8254;SDS011;4167;48.162;11.542;2023-03-08T14:32:30;266.23;;;61.10;;
8254;SDS011;4167;48.162;11.542;2023-03-08T14:35:04;236.80;;;60.20;;
8254;SDS011;4167;48.162;11.542;2023-03-08T14:37:32;262.20;;;61.43;;
8254;SDS011;4167;48.162;11.542;2023-03-08T14:40:13;259.33;;;60.77;;